Terminal Aerodrome Forecast
Issued by NWS

Home | Current Version | Previous Version | Graphics & Text | Print | Product List | Glossary On
Versions: 1 2 3 4 5 6 7 8 9 10 11 12 13 14 15
486
FTUS43 KGRB 232320
TAFCWA
TAF
KCWA 232320Z 2400/2424 18004KT P6SM FEW250
     FM240100 VRB03KT P6SM SCT150
     FM241400 35005KT P6SM BKN120
     FM242000 35008KT P6SM BKN050
      AMD LTD TO CLD VIS AND WIND 2403/2411=

USA.gov is the U.S. government's official web portal to all federal, state and local government web resources and services.